Time;durP1;ratioP1;P1;durP2;ratioP2;P2;SDS_P1;SDS_P2;PMS_P1;PMS_P2;Temp;Humidity;BMP_temperature;BMP_pressure;BME280_temperature;BME280_humidity;BME280_pressure;Samples;Min_cycle;Max_cycle;Signal;HPM_P1;HPM_P2
2022/05/20 00:00:19;;;;;;;13.32;5.10;;;;;;;15.71;45.29;99542.90;1778497;79;21427;-63
2022/05/20 00:02:52;;;;;;;4.17;2.87;;;;;;;15.68;45.41;99543.09;1778651;79;21027;-62
2022/05/20 00:05:15;;;;;;;7.10;3.47;;;;;;;15.64;45.56;99532.39;1780606;79;20966;-63
2022/05/20 00:07:42;;;;;;;11.68;3.22;;;;;;;15.63;45.61;99529.41;1779392;79;21070;-63
2022/05/20 00:10:12;;;;;;;9.55;3.40;;;;;;;15.61;45.69;99532.13;1777316;79;21453;-63
2022/05/20 00:12:40;;;;;;;8.23;3.52;;;;;;;15.60;45.77;99524.34;1784478;79;20974;-63
2022/05/20 00:15:09;;;;;;;6.28;3.58;;;;;;;15.59;45.88;99526.61;1785431;79;21812;-63
2022/05/20 00:17:36;;;;;;;4.25;2.98;;;;;;;15.57;45.95;99525.88;1774566;79;20937;-63
2022/05/20 00:20:06;;;;;;;12.33;3.27;;;;;;;15.58;46.08;99522.31;1782912;79;22286;-63
2022/05/20 00:22:33;;;;;;;3.70;3.05;;;;;;;15.64;46.15;99519.23;1775822;79;20946;-63
2022/05/20 00:27:44;;;;;;;5.75;3.30;;;;;;;15.75;46.34;99524.60;1763724;79;21440;-63
2022/05/20 00:30:14;;;;;;;5.35;3.15;;;;;;;15.79;46.31;99520.78;1773217;79;20984;-63
2022/05/20 00:32:40;;;;;;;6.62;2.87;;;;;;;15.81;46.51;99523.32;1777745;79;20875;-63
2022/05/20 00:35:09;;;;;;;5.57;2.93;;;;;;;15.85;46.50;99517.73;1776598;79;20928;-64
2022/05/20 00:37:36;;;;;;;7.62;3.22;;;;;;;15.86;46.56;99513.30;1769759;79;21058;-63
2022/05/20 00:40:14;;;;;;;5.83;3.33;;;;;;;15.93;46.66;99511.05;1774402;79;20976;-64
2022/05/20 00:42:41;;;;;;;6.60;3.40;;;;;;;15.94;46.64;99515.39;1766575;80;20877;-63
2022/05/20 00:45:10;;;;;;;6.42;3.08;;;;;;;15.97;46.73;99507.27;1771945;79;21124;-63
2022/05/20 00:47:36;;;;;;;6.17;2.85;;;;;;;15.97;46.79;99509.89;1772065;79;20956;-63
2022/05/20 00:50:08;;;;;;;9.20;3.55;;;;;;;15.98;46.88;99507.13;1775229;79;20960;-63
2022/05/20 00:52:38;;;;;;;6.90;3.40;;;;;;;16.00;46.91;99506.55;1775876;79;21479;-63
2022/05/20 00:55:10;;;;;;;6.58;3.00;;;;;;;16.02;46.91;99509.05;1773081;80;20961;-63
2022/05/20 00:57:54;;;;;;;7.00;2.90;;;;;;;16.04;46.96;99508.00;1772963;80;21865;-63
2022/05/20 01:00:28;;;;;;;6.78;2.98;;;;;;;16.08;47.15;99507.31;1759394;79;20879;-63
2022/05/20 01:02:59;;;;;;;5.85;3.75;;;;;;;16.11;47.07;99505.77;1771119;79;20976;-64
2022/05/20 01:05:37;;;;;;;4.78;2.72;;;;;;;16.12;47.15;99495.59;1766469;80;20967;-63
2022/05/20 01:08:07;;;;;;;7.50;3.70;;;;;;;16.14;47.14;99495.48;1768036;80;21009;-63
2022/05/20 01:10:35;;;;;;;5.17;3.10;;;;;;;16.17;47.24;99501.36;1741077;80;21817;-63
2022/05/20 01:13:02;;;;;;;6.12;3.20;;;;;;;16.18;47.26;99510.94;1771315;79;21537;-63
2022/05/20 01:15:29;;;;;;;6.00;3.10;;;;;;;16.19;47.29;99507.37;1771766;79;20930;-63
2022/05/20 01:17:57;;;;;;;;;;;;;;;16.20;47.33;99506.40;1770557;80;21448;-63
2022/05/20 01:20:34;;;;;;;8.40;2.92;;;;;;;16.21;47.48;99497.53;1770437;79;20445;-63
2022/05/20 01:23:14;;;;;;;4.87;3.15;;;;;;;16.23;47.48;99496.12;1774474;79;26725;-64
2022/05/20 01:25:47;;;;;;;6.55;2.60;;;;;;;16.26;47.47;99490.13;1776162;79;21029;-63
2022/05/20 01:28:16;;;;;;;5.50;2.77;;;;;;;16.30;47.52;99481.06;1782494;79;21432;-63
2022/05/20 01:30:48;;;;;;;8.10;2.60;;;;;;;16.33;47.57;99476.88;1800531;78;21861;-63
2022/05/20 01:33:25;;;;;;;9.43;2.42;;;;;;;16.42;47.55;99478.47;1781562;79;21532;-63
2022/05/20 01:35:52;;;;;;;;;;;;;;;16.46;47.58;99477.27;1805577;78;21093;-63
2022/05/20 01:38:19;;;;;;;5.28;3.05;;;;;;;16.47;47.69;99476.33;1809433;77;20109;-63
2022/05/20 01:40:56;;;;;;;5.35;2.65;;;;;;;16.49;47.68;99482.30;1805880;77;20954;-63
2022/05/20 01:44:13;;;;;;;5.08;2.52;;;;;;;16.50;47.67;99473.45;1804798;77;20906;-63
2022/05/20 01:46:51;;;;;;;8.50;3.12;;;;;;;16.50;47.69;99478.73;1797345;79;20969;-63
2022/05/20 01:49:45;;;;;;;5.97;2.65;;;;;;;16.50;47.69;99487.95;1734536;81;21100;-63
2022/05/20 01:52:40;;;;;;;4.70;2.67;;;;;;;16.46;47.70;99493.08;1766292;80;21504;-63
2022/05/20 01:55:40;;;;;;;7.05;2.90;;;;;;;16.44;47.77;99492.34;1767389;79;20986;-63
2022/05/20 01:58:15;;;;;;;4.22;2.65;;;;;;;16.44;47.79;99492.34;1767872;79;21068;-63
2022/05/20 02:00:43;;;;;;;7.37;2.72;;;;;;;16.42;47.86;99495.11;1755081;80;20950;-63
2022/05/20 02:03:17;;;;;;;7.83;2.98;;;;;;;16.41;47.88;99484.67;1746722;80;21036;-63
2022/05/20 02:05:52;;;;;;;12.25;2.85;;;;;;;16.40;47.89;99477.25;1766742;79;21494;-64
2022/05/20 02:08:27;;;;;;;6.47;2.98;;;;;;;16.40;47.95;99476.41;1762791;80;21472;-63
2022/05/20 02:11:20;;;;;;;2.60;2.20;;;;;;;16.42;48.03;99477.14;1766161;80;21017;-63
2022/05/20 02:13:52;;;;;;;4.05;2.70;;;;;;;16.42;48.03;99471.88;1771932;80;20902;-63
2022/05/20 02:16:22;;;;;;;4.87;2.52;;;;;;;16.45;48.07;99472.95;1765622;79;21828;-63
2022/05/20 02:18:56;;;;;;;3.20;2.80;;;;;;;16.45;48.16;99479.06;1768026;80;21029;-64
2022/05/20 02:21:27;;;;;;;4.50;2.83;;;;;;;16.45;48.25;99487.45;1763406;80;21025;-63
2022/05/20 02:23:58;;;;;;;5.08;2.70;;;;;;;16.45;48.31;99475.59;1739752;80;20961;-63
2022/05/20 02:26:29;;;;;;;4.17;2.70;;;;;;;16.48;48.37;99467.45;1779752;78;21022;-63
2022/05/20 02:29:13;;;;;;;4.15;2.90;;;;;;;16.53;48.46;99467.95;1724678;79;21027;-63
2022/05/20 02:31:51;;;;;;;4.40;2.75;;;;;;;16.54;48.51;99470.45;1747474;79;20941;-63
2022/05/20 02:34:18;;;;;;;19.75;4.55;;;;;;;16.54;48.56;99459.08;1708113;82;20981;-63
2022/05/20 02:36:44;;;;;;;11.95;3.65;;;;;;;16.53;48.65;99449.02;1719672;81;21416;-63
2022/05/20 02:39:17;;;;;;;3.67;2.83;;;;;;;16.55;48.81;99450.20;1719339;81;20918;-63
2022/05/20 02:41:47;;;;;;;3.33;2.70;;;;;;;16.57;48.83;99457.52;1717823;81;21023;-64
2022/05/20 02:44:15;;;;;;;6.37;3.20;;;;;;;16.61;48.88;99460.30;1720060;81;20958;-64
2022/05/20 02:46:46;;;;;;;4.12;2.98;;;;;;;16.66;48.96;99460.77;1718936;81;21508;-63
2022/05/20 02:49:19;;;;;;;3.80;2.67;;;;;;;16.72;49.01;99470.86;1719967;81;21558;-64
2022/05/20 02:51:43;;;;;;;5.65;2.90;;;;;;;16.78;49.01;99467.78;1713569;81;21128;-63
2022/05/20 02:54:10;;;;;;;29.37;5.97;;;;;;;16.84;49.03;99460.36;1718828;81;21186;-64
2022/05/20 02:56:38;;;;;;;10.35;3.83;;;;;;;16.89;49.10;99458.22;1720699;81;25394;-63
2022/05/20 03:04:39;;;;;;;15.53;3.85;;;;;;;16.98;49.27;99475.95;1719430;81;21052;-63
2022/05/20 03:07:03;;;;;;;28.92;4.72;;;;;;;17.01;49.31;99473.07;1717259;81;21056;-63
2022/05/20 03:09:30;;;;;;;7.62;3.10;;;;;;;17.04;49.34;99479.91;1722984;81;20919;-63
2022/05/20 03:11:57;;;;;;;9.80;3.65;;;;;;;17.07;49.41;99473.91;1756267;79;21012;-64
2022/05/20 03:14:24;;;;;;;57.48;9.28;;;;;;;17.08;49.38;99476.89;1779875;79;21549;-63
2022/05/20 03:16:50;;;;;;;;;;;;;;;17.08;49.44;99479.53;1786299;79;20977;-63
2022/05/20 03:19:19;;;;;;;15.35;4.47;;;;;;;17.09;49.60;99486.50;1784874;79;21036;-63
2022/05/20 03:21:46;;;;;;;24.37;5.40;;;;;;;17.10;49.59;99496.08;1783966;78;21354;-63
2022/05/20 03:24:13;;;;;;;8.05;3.30;;;;;;;17.11;49.62;99489.87;1801624;78;21068;-64
2022/05/20 03:26:39;;;;;;;;;;;;;;;17.15;49.70;99491.30;1818118;78;21008;-63
2022/05/20 03:29:06;;;;;;;21.55;4.92;;;;;;;17.19;49.83;99503.27;1816368;77;20111;-63
2022/05/20 03:31:36;;;;;;;12.23;3.40;;;;;;;17.20;49.82;99494.42;1817972;77;21041;-63
2022/05/20 03:34:09;;;;;;;4.22;3.10;;;;;;;17.21;49.93;99489.48;1807920;78;21547;-63
2022/05/20 03:36:39;;;;;;;4.97;3.00;;;;;;;17.20;49.95;99483.86;1811610;77;20997;-63
2022/05/20 03:39:07;;;;;;;7.83;3.58;;;;;;;17.20;50.05;99473.31;1805163;78;20926;-63
2022/05/20 03:41:34;;;;;;;5.65;3.50;;;;;;;17.18;50.21;99469.95;1820064;77;20890;-63
2022/05/20 03:44:01;;;;;;;75.67;9.43;;;;;;;17.17;50.31;99472.72;1815684;77;21067;-64
2022/05/20 03:46:28;;;;;;;39.70;5.55;;;;;;;17.15;50.41;99472.83;1820349;77;20888;-63
2022/05/20 03:48:54;;;;;;;6.40;3.35;;;;;;;17.14;50.54;99476.44;1827887;77;20882;-64
2022/05/20 03:51:21;;;;;;;3.92;3.10;;;;;;;17.13;50.57;99468.14;1805881;78;20972;-63
2022/05/20 03:53:47;;;;;;;6.62;3.25;;;;;;;17.14;50.77;99468.52;1810556;78;20912;-63
2022/05/20 03:56:14;;;;;;;6.57;3.20;;;;;;;17.15;50.87;99471.51;1811512;78;21261;-63
2022/05/20 03:58:41;;;;;;;10.40;3.85;;;;;;;17.15;51.04;99464.08;1790410;79;21203;-63
2022/05/20 04:03:56;;;;;;;7.03;2.98;;;;;;;17.19;51.34;99473.42;1779759;79;20903;-63
2022/05/20 04:06:23;;;;;;;13.00;4.12;;;;;;;17.20;51.49;99470.67;1775106;78;20989;-63
2022/05/20 04:08:50;;;;;;;22.77;5.35;;;;;;;17.22;51.68;99473.17;1774611;78;21029;-64
2022/05/20 04:11:16;;;;;;;10.28;3.75;;;;;;;17.23;51.85;99463.83;1776635;80;21029;-63
2022/05/20 04:13:43;;;;;;;16.87;4.47;;;;;;;17.29;51.97;99464.31;1814918;78;21548;-64
2022/05/20 04:16:13;;;;;;;12.93;4.10;;;;;;;17.40;52.32;99444.50;1818079;77;21709;-63
2022/05/20 04:18:43;;;;;;;3.72;3.08;;;;;;;17.40;52.32;99444.50;1815940;77;20946;-63
2022/05/20 04:21:12;;;;;;;18.02;4.08;;;;;;;17.64;52.39;99463.66;1821264;77;21521;-64
2022/05/20 04:23:40;;;;;;;15.83;4.55;;;;;;;17.74;52.46;99463.73;1814357;77;21002;-64
2022/05/20 04:26:06;;;;;;;;;;;;;;;17.81;52.51;99457.50;1817634;78;20983;-64
2022/05/20 04:28:34;;;;;;;6.12;3.33;;;;;;;17.84;52.82;99455.92;1819284;78;20423;-63
2022/05/20 04:31:05;;;;;;;9.80;3.50;;;;;;;17.82;52.75;99449.95;1815971;78;21466;-64
2022/05/20 04:33:32;;;;;;;7.30;3.50;;;;;;;17.82;53.00;99452.59;1817758;78;20999;-63
2022/05/20 04:35:59;;;;;;;;;;;;;;;17.83;53.09;99452.94;1792085;79;21461;-64
2022/05/20 04:38:26;;;;;;;;;;;;;;;17.89;53.44;99453.75;1808521;78;20094;-63
2022/05/20 04:49:10;;;;;;;5.80;3.40;;;;;;;19.64;55.14;99460.84;1818881;78;21590;-64
2022/05/20 04:51:38;;;;;;;7.95;3.52;;;;;;;21.88;55.01;99456.33;1809220;77;21672;-64
2022/05/20 04:56:53;;;;;;;8.80;3.10;;;;;;;25.00;53.92;99448.44;1770822;78;20972;-62
2022/05/20 04:59:24;;;;;;;6.62;2.85;;;;;;;25.94;53.18;99442.67;1787162;78;22030;-63
2022/05/20 05:01:52;;;;;;;6.35;2.83;;;;;;;26.48;52.40;99442.54;1787723;78;21040;-63
2022/05/20 05:04:20;;;;;;;12.10;3.33;;;;;;;27.16;52.20;99438.52;1812888;77;20937;-64
2022/05/20 05:06:48;;;;;;;4.55;2.85;;;;;;;27.80;51.68;99442.69;1814174;78;21031;-64
2022/05/20 05:09:15;;;;;;;10.95;2.98;;;;;;;28.38;51.34;99431.03;1822537;78;20965;-65
2022/05/20 05:11:42;;;;;;;5.42;2.75;;;;;;;28.85;49.97;99437.56;1790460;79;21039;-64
2022/05/20 05:14:11;;;;;;;9.33;2.52;;;;;;;28.60;49.33;99440.73;1816572;78;20956;-64
2022/05/20 05:16:38;;;;;;;7.83;2.15;;;;;;;28.77;49.31;99447.45;1818377;78;21017;-62
2022/05/20 05:19:05;;;;;;;5.70;2.25;;;;;;;28.97;48.03;99441.38;1786361;78;20918;-62
2022/05/20 05:21:32;;;;;;;5.78;1.80;;;;;;;28.67;47.73;99438.91;1823475;78;21491;-64
2022/05/20 05:24:01;;;;;;;13.90;2.35;;;;;;;28.56;47.60;99450.19;1816226;78;21127;-64
2022/05/20 05:26:30;;;;;;;4.35;2.25;;;;;;;28.60;47.27;99443.42;1805645;78;20928;-63
2022/05/20 05:28:57;;;;;;;22.70;3.12;;;;;;;28.64;46.47;99443.33;1808450;77;20897;-63
2022/05/20 05:31:26;;;;;;;24.23;3.30;;;;;;;28.55;46.16;99445.86;1801976;78;21784;-64
2022/05/20 05:33:55;;;;;;;48.10;11.50;;;;;;;28.46;45.29;99444.35;1812724;78;20976;-64
2022/05/20 05:36:22;;;;;;;11.18;3.90;;;;;;;28.34;45.50;99452.91;1782724;78;21013;-64
2022/05/20 05:38:49;;;;;;;18.82;3.10;;;;;;;28.46;44.99;99444.35;1819776;78;20926;-62
2022/05/20 05:41:17;;;;;;;12.05;2.00;;;;;;;28.07;44.76;99446.98;1799545;78;21532;-63
2022/05/20 05:43:46;;;;;;;6.03;1.87;;;;;;;27.97;44.71;99457.20;1812520;78;20934;-64
2022/05/20 05:46:14;;;;;;;13.83;2.50;;;;;;;27.94;44.23;99457.59;1793001;78;21657;-63
2022/05/20 05:48:41;;;;;;;6.30;2.22;;;;;;;27.77;44.43;99463.16;1810091;78;21168;-63
2022/05/20 05:51:07;;;;;;;16.42;3.15;;;;;;;27.68;43.69;99468.33;1807380;78;20945;-64
2022/05/20 05:53:36;;;;;;;31.57;4.03;;;;;;;27.45;43.98;99465.28;1810228;78;20878;-61
2022/05/20 05:56:06;;;;;;;10.82;2.60;;;;;;;27.05;43.88;99459.05;1809356;77;21499;-64
2022/05/20 05:58:35;;;;;;;3.80;2.15;;;;;;;26.37;43.98;99471.08;1806780;78;21951;-64
2022/05/20 06:01:03;;;;;;;35.00;5.53;;;;;;;25.92;44.53;99471.44;1776931;78;22807;-63
2022/05/20 06:03:29;;;;;;;13.90;3.47;;;;;;;25.46;44.48;99483.37;1783688;78;21436;-62
2022/05/20 06:05:56;;;;;;;31.25;5.92;;;;;;;25.14;44.93;99485.15;1809976;78;21404;-63
2022/05/20 06:08:25;;;;;;;16.05;6.28;;;;;;;24.87;45.14;99490.86;1814032;78;20957;-62
2022/05/20 06:10:52;;;;;;;9.10;6.42;;;;;;;24.42;45.18;99489.55;1811748;78;21473;-66
2022/05/20 06:13:25;;;;;;;37.83;8.83;;;;;;;23.77;45.43;99495.66;1810697;78;21019;-64
2022/05/20 06:15:55;;;;;;;14.73;6.92;;;;;;;23.20;46.13;99502.91;1805685;78;20970;-62
2022/05/20 06:18:23;;;;;;;16.67;8.23;;;;;;;22.70;46.45;99500.91;1801901;78;20997;-62
2022/05/20 06:20:49;;;;;;;15.13;8.15;;;;;;;22.00;47.15;99506.94;1806077;78;21452;-62
2022/05/20 06:23:20;;;;;;;;;;;;;;;21.38;47.63;99512.56;1821711;78;20969;-62
2022/05/20 06:25:48;;;;;;;10.82;9.70;;;;;;;20.99;48.56;99501.55;1783293;78;21091;-62
2022/05/20 06:28:18;;;;;;;12.28;8.88;;;;;;;20.66;48.81;99516.16;1783732;79;20966;-63
2022/05/20 06:30:45;;;;;;;11.65;10.05;;;;;;;20.46;49.67;99522.44;1825440;78;20921;-62
2022/05/20 06:33:13;;;;;;;16.93;11.48;;;;;;;20.16;50.21;99512.30;1807396;78;20928;-62
2022/05/20 06:41:10;;;;;;;17.60;10.15;;;;;;;19.78;51.99;99520.57;1772310;78;20941;-62
2022/05/20 06:43:42;;;;;;;21.57;11.75;;;;;;;19.78;52.82;99523.72;1783776;78;20907;-63
2022/05/20 06:46:10;;;;;;;16.27;13.13;;;;;;;19.78;52.96;99525.88;1781952;78;21009;-62
2022/05/20 06:48:45;;;;;;;23.80;13.83;;;;;;;19.77;53.42;99526.83;1787402;79;20936;-63
2022/05/20 06:51:15;;;;;;;19.52;12.88;;;;;;;19.76;53.77;99533.11;1812401;78;20990;-63
2022/05/20 06:53:43;;;;;;;27.98;14.80;;;;;;;19.74;54.44;99524.45;1811963;78;20893;-63
2022/05/20 06:56:11;;;;;;;27.87;14.55;;;;;;;19.93;54.69;99520.17;1804493;78;20885;-63
2022/05/20 06:58:38;;;;;;;17.90;15.58;;;;;;;19.98;54.92;99533.86;1800945;78;20908;-62
2022/05/20 07:01:05;;;;;;;18.45;14.78;;;;;;;19.94;55.13;99537.28;1810704;78;20948;-62
2022/05/20 07:03:32;;;;;;;16.90;13.15;;;;;;;19.86;55.41;99536.63;1810017;78;21129;-62
2022/05/20 07:05:59;;;;;;;22.85;14.93;;;;;;;19.68;56.21;99544.86;1816718;77;20863;-62
2022/05/20 07:08:26;;;;;;;58.05;21.50;;;;;;;19.61;56.38;99534.44;1810333;78;21427;-62
2022/05/20 07:10:53;;;;;;;55.33;19.52;;;;;;;19.66;56.77;99537.53;1814953;78;21102;-62
2022/05/20 07:13:19;;;;;;;26.35;14.03;;;;;;;19.87;57.07;99532.16;1812962;78;21463;-62
2022/05/20 07:15:46;;;;;;;26.90;14.33;;;;;;;20.07;57.39;99535.67;1808183;78;21092;-61
2022/05/20 07:18:13;;;;;;;69.12;16.27;;;;;;;20.32;57.54;99532.48;1815709;78;21008;-61
2022/05/20 07:20:41;;;;;;;18.92;14.18;;;;;;;20.63;57.81;99536.83;1818107;78;20908;-62
2022/05/20 07:23:07;;;;;;;29.60;14.45;;;;;;;20.70;57.59;99536.63;1807756;78;20861;-62
2022/05/20 07:25:36;;;;;;;25.27;16.57;;;;;;;20.56;57.73;99541.88;1770701;79;20931;-62
2022/05/20 07:28:03;;;;;;;27.07;15.60;;;;;;;20.12;57.81;99548.03;1783170;78;21962;-62
2022/05/20 07:30:30;;;;;;;25.77;15.30;;;;;;;20.03;58.26;99548.38;1783654;78;20856;-62
2022/05/20 07:32:56;;;;;;;21.33;15.32;;;;;;;19.93;58.26;99551.97;1812344;78;20908;-62
2022/05/20 07:35:23;;;;;;;21.57;16.23;;;;;;;19.76;58.48;99550.82;1776841;79;21595;-62
2022/05/20 07:37:51;;;;;;;20.55;17.00;;;;;;;19.64;58.67;99553.54;1773499;78;20939;-62
2022/05/20 07:40:19;;;;;;;17.02;14.87;;;;;;;19.53;58.94;99553.64;1788856;78;21026;-61
2022/05/20 07:42:46;;;;;;;20.17;16.57;;;;;;;19.53;59.55;99555.46;1767588;79;20870;-62
2022/05/20 07:45:15;;;;;;;;;;;;;;;19.66;59.85;99558.72;1797122;78;21668;-61
2022/05/20 07:47:42;;;;;;;21.10;16.67;;;;;;;19.92;59.90;99555.61;1795070;79;20112;-62
2022/05/20 07:50:10;;;;;;;20.52;17.10;;;;;;;19.95;59.81;99547.38;1792715;78;21037;-63
2022/05/20 07:55:27;;;;;;;20.02;17.40;;;;;;;20.64;60.15;99553.94;1793790;78;20958;-62
2022/05/20 07:57:54;;;;;;;20.65;15.48;;;;;;;20.95;60.33;99551.11;1795642;79;20957;-62
2022/05/20 08:00:22;;;;;;;18.40;14.68;;;;;;;21.27;60.02;99559.18;1794485;78;20918;-62
2022/05/20 08:02:53;;;;;;;24.57;14.15;;;;;;;21.41;59.73;99564.05;1794443;78;20970;-62
2022/05/20 08:05:22;;;;;;;19.20;13.53;;;;;;;21.29;59.73;99551.91;1790852;79;21103;-62
2022/05/20 08:07:50;;;;;;;18.27;12.07;;;;;;;21.18;59.82;99561.72;1792016;78;20878;-62
2022/05/20 08:10:23;;;;;;;13.18;11.40;;;;;;;21.10;59.84;99569.56;1794773;79;20929;-62
2022/05/20 08:12:52;;;;;;;14.63;10.88;;;;;;;21.08;60.06;99568.86;1787943;78;20988;-63
2022/05/20 08:15:19;;;;;;;16.70;13.10;;;;;;;20.97;59.90;99571.69;1783451;78;20950;-62
2022/05/20 08:17:45;;;;;;;;;;;;;;;20.67;59.92;99570.04;1792021;79;21031;-62
2022/05/20 08:20:25;;;;;;;16.20;12.60;;;;;;;20.64;60.37;99576.49;1798322;79;20138;-63
2022/05/20 08:22:53;;;;;;;14.05;9.95;;;;;;;20.71;60.42;99569.63;1792242;78;20918;-63
2022/05/20 08:25:21;;;;;;;16.93;12.15;;;;;;;21.06;60.91;99569.98;1795389;78;21383;-62
2022/05/20 08:27:49;;;;;;;17.15;10.98;;;;;;;21.15;60.41;99569.98;1794955;79;20949;-62
2022/05/20 08:30:25;;;;;;;20.65;10.05;;;;;;;21.34;60.28;99578.84;1795895;79;21087;-62
2022/05/20 08:32:52;;;;;;;14.55;9.30;;;;;;;21.44;60.17;99578.36;1789665;78;21018;-61
2022/05/20 08:35:21;;;;;;;24.02;9.85;;;;;;;21.50;59.94;99576.45;1788824;78;21487;-62
2022/05/20 08:37:49;;;;;;;14.68;9.08;;;;;;;21.50;60.10;99575.62;1788784;78;21140;-63
2022/05/20 08:40:26;;;;;;;16.67;8.43;;;;;;;21.47;59.80;99582.05;1792039;79;21067;-63
2022/05/20 08:42:56;;;;;;;23.32;11.15;;;;;;;21.47;59.87;99585.20;1785241;78;21668;-62
2022/05/20 08:45:28;;;;;;;30.23;11.20;;;;;;;21.65;60.03;99576.33;1792278;78;20942;-63
2022/05/20 08:47:57;;;;;;;32.73;11.48;;;;;;;21.87;60.10;99580.88;1794468;78;21444;-64
2022/05/20 08:50:45;;;;;;;17.98;8.60;;;;;;;22.04;59.82;99585.42;1798545;79;21511;-64
2022/05/20 08:53:23;;;;;;;11.28;7.10;;;;;;;22.31;59.91;99578.41;1789219;78;20959;-64
2022/05/20 08:55:49;;;;;;;28.27;8.25;;;;;;;22.56;59.33;99574.98;1795600;79;24054;-63
2022/05/20 08:58:20;;;;;;;16.52;6.37;;;;;;;22.76;59.14;99573.48;1788394;78;20929;-64
2022/05/20 09:00:47;;;;;;;12.35;5.25;;;;;;;22.89;58.60;99576.58;1788764;78;21016;-67
2022/05/20 09:03:13;;;;;;;;;;;;;;;22.82;57.23;99574.19;1801051;78;20910;-63
2022/05/20 09:05:43;;;;;;;8.33;4.37;;;;;;;22.51;55.55;99579.91;1794229;79;20452;-63
2022/05/20 09:08:33;;;;;;;11.78;4.42;;;;;;;22.13;56.00;99569.89;1794192;78;21989;-61
2022/05/20 09:11:07;;;;;;;11.45;3.90;;;;;;;21.85;56.20;99561.61;1762177;79;21443;-64
2022/05/20 09:16:07;;;;;;;19.23;5.03;;;;;;;21.70;55.95;99579.85;1756282;79;21011;-64
2022/05/20 09:18:39;;;;;;;11.53;3.70;;;;;;;21.80;56.41;99574.50;1796825;78;20898;-64
2022/05/20 09:21:08;;;;;;;13.15;3.83;;;;;;;22.12;56.00;99585.98;1786787;78;21152;-65
2022/05/20 09:23:52;;;;;;;22.52;4.42;;;;;;;22.37;55.55;99583.11;1788245;78;20965;-62
2022/05/20 09:26:30;;;;;;;9.95;3.40;;;;;;;22.59;55.05;99588.97;1785931;79;20951;-64
2022/05/20 09:29:10;;;;;;;17.73;5.05;;;;;;;22.95;55.28;99601.28;1784156;79;21701;-62
2022/05/20 09:31:45;;;;;;;11.83;4.62;;;;;;;22.95;54.81;99582.64;1789347;78;21612;-62
2022/05/20 09:34:31;;;;;;;18.95;3.83;;;;;;;23.08;54.46;99589.37;1785292;78;21066;-63
2022/05/20 09:37:06;;;;;;;;;;;;;;;22.76;52.82;99596.10;1790923;79;21487;-61
2022/05/20 09:39:38;;;;;;;7.37;3.70;;;;;;;21.96;52.74;99598.63;1751490;80;20103;-62
2022/05/20 09:42:19;;;;;;;8.35;3.95;;;;;;;21.68;53.69;99604.42;1754545;81;21006;-62
2022/05/20 09:44:50;;;;;;;19.65;4.55;;;;;;;21.94;53.80;99596.59;1777370;79;21463;-62
2022/05/20 09:47:46;;;;;;;6.37;3.80;;;;;;;22.04;53.70;99598.72;1751617;79;21441;-62
2022/05/20 09:50:27;;;;;;;8.65;3.62;;;;;;;22.31;54.06;99603.67;1785894;79;21036;-63
2022/05/20 09:53:14;;;;;;;5.60;3.62;;;;;;;22.50;54.01;99602.20;1805955;77;21317;-62
2022/05/20 09:55:47;;;;;;;6.28;3.80;;;;;;;22.65;53.90;99591.02;1780972;79;21451;-63
2022/05/20 09:58:27;;;;;;;19.27;3.87;;;;;;;23.13;53.70;99605.73;1762157;79;20981;-61
2022/05/20 10:01:05;;;;;;;10.68;4.62;;;;;;;23.07;53.49;99606.36;1764708;80;21133;-64
2022/05/20 10:03:44;;;;;;;10.28;6.00;;;;;;;22.83;53.20;99614.97;1775556;79;20954;-66
2022/05/20 10:06:34;;;;;;;15.85;6.87;;;;;;;22.38;53.54;99604.75;1804769;77;20939;-63
2022/05/20 10:09:27;;;;;;;12.55;7.30;;;;;;;22.24;53.67;99621.23;1805174;77;20965;-67
2022/05/20 10:12:08;;;;;;;8.95;6.25;;;;;;;22.00;53.68;99623.91;1771148;79;20954;-64
2022/05/20 10:14:56;;;;;;;14.90;9.33;;;;;;;21.34;54.23;99638.13;1788294;79;20987;-64
2022/05/20 10:18:06;;;;;;;13.03;8.83;;;;;;;21.03;54.39;99634.81;1778410;80;20894;-62
2022/05/20 10:20:41;;;;;;;17.80;10.63;;;;;;;21.02;54.70;99635.80;1768923;79;20915;-62
2022/05/20 10:23:25;;;;;;;17.02;12.90;;;;;;;20.86;54.83;99635.53;1754604;80;21002;-63
2022/05/20 10:26:33;;;;;;;13.95;11.05;;;;;;;20.65;54.89;99646.30;1737419;81;20959;-61
2022/05/20 10:32:50;;;;;;;64.10;15.38;;;;;;;21.01;56.20;99631.48;1701674;82;20987;-62
2022/05/20 10:35:21;;;;;;;29.00;11.45;;;;;;;21.75;56.15;99632.56;1745448;81;20942;-63
2022/05/20 10:38:19;;;;;;;24.15;13.15;;;;;;;22.00;55.65;99637.20;1742764;81;21040;-62
2022/05/20 10:41:21;;;;;;;18.12;11.75;;;;;;;22.20;56.12;99635.80;1744751;81;20938;-62
2022/05/20 10:50:24;;;;;;;14.45;11.20;;;;;;;22.00;54.96;99637.20;1712174;82;20958;-62
2022/05/20 10:53:14;;;;;;;12.45;9.65;;;;;;;21.87;55.02;99649.98;1709099;82;21055;-62
2022/05/20 10:56:30;;;;;;;16.77;10.03;;;;;;;21.90;54.88;99642.58;1737839;81;21823;-62
2022/05/20 10:59:30;;;;;;;;;;;;;;;21.84;55.11;99642.31;1745068;81;21040;-63
2022/05/20 11:02:39;;;;;;;30.95;12.07;;;;;;;21.90;54.79;99641.72;1786398;79;20130;-62
2022/05/20 11:05:43;;;;;;;25.95;11.12;;;;;;;21.59;54.67;99639.35;1782865;78;20936;-62
2022/05/20 11:08:51;;;;;;;30.43;10.15;;;;;;;21.35;54.72;99644.28;1788525;79;20940;-62
2022/05/20 11:11:40;;;;;;;31.48;12.70;;;;;;;21.08;54.74;99656.47;1788640;79;20949;-63
2022/05/20 11:14:30;;;;;;;25.35;13.60;;;;;;;21.09;54.98;99647.54;1782822;79;21086;-63
2022/05/20 11:17:26;;;;;;;22.85;12.07;;;;;;;21.17;55.19;99646.81;1780750;78;21166;-63
2022/05/20 11:20:32;;;;;;;32.40;11.60;;;;;;;21.42;55.14;99645.39;1785324;78;21028;-62
2022/05/20 11:23:33;;;;;;;23.92;11.88;;;;;;;21.51;54.75;99647.20;1785494;78;20953;-62
2022/05/20 11:26:42;;;;;;;58.20;14.23;;;;;;;21.53;54.88;99659.83;1796329;78;20954;-63
2022/05/20 11:29:41;;;;;;;15.80;11.57;;;;;;;21.04;54.34;99657.73;1805054;78;22108;-62
2022/05/20 11:32:16;;;;;;;18.30;12.82;;;;;;;20.34;54.56;99663.60;1799796;77;20946;-62
2022/05/20 11:35:20;;;;;;;19.65;11.90;;;;;;;19.78;55.06;99671.58;1751187;78;20922;-62
2022/05/20 11:38:01;;;;;;;12.30;9.43;;;;;;;19.58;55.30;99677.72;1780339;78;20984;-62
2022/05/20 11:44:06;;;;;;;12.28;6.08;;;;;;;18.90;56.32;99679.88;1660355;85;21113;-62
2022/05/20 11:46:38;;;;;;;16.55;5.20;;;;;;;18.51;56.86;99685.64;1656413;85;20950;-61
2022/05/20 11:49:41;;;;;;;11.50;4.25;;;;;;;18.26;57.21;99685.91;1652177;85;20955;-62
2022/05/20 11:52:32;;;;;;;10.03;4.05;;;;;;;18.07;57.40;99692.67;1598191;88;21032;-62
2022/05/20 11:55:04;;;;;;;4.75;2.90;;;;;;;17.90;58.20;99693.16;1604384;88;21008;-63
2022/05/20 11:57:42;;;;;;;11.33;3.77;;;;;;;17.71;58.97;99679.67;1629202;86;21880;-63
2022/05/20 12:00:14;;;;;;;6.50;3.52;;;;;;;17.56;58.89;99685.19;1631696;86;20973;-63
2022/05/20 12:02:48;;;;;;;8.43;3.12;;;;;;;17.44;59.49;99680.83;1631466;86;20988;-63
2022/05/20 12:05:19;;;;;;;6.17;3.92;;;;;;;17.34;60.01;99683.83;1634305;86;21023;-62
2022/05/20 12:07:48;;;;;;;9.55;5.25;;;;;;;17.32;60.16;99688.37;1622008;86;21160;-61
2022/05/20 12:10:32;;;;;;;8.58;5.53;;;;;;;17.23;60.22;99680.67;1632466;86;21047;-62
2022/05/20 12:13:24;;;;;;;5.62;4.80;;;;;;;17.29;60.85;99672.77;1619315;86;20987;-62
2022/05/20 12:16:11;;;;;;;8.35;4.75;;;;;;;17.91;61.77;99668.42;1595446;86;42518;-63
2022/05/20 12:24:40;;;;;;;10.38;4.28;;;;;;;19.59;61.30;99650.26;1629791;86;21303;-63
2022/05/20 12:27:27;;;;;;;5.45;3.42;;;;;;;19.73;61.29;99635.36;1634911;86;21555;-62
2022/05/20 12:30:11;;;;;;;9.68;4.05;;;;;;;19.92;61.42;99651.00;1684877;83;21125;-63
2022/05/20 12:32:42;;;;;;;10.85;3.20;;;;;;;20.18;61.50;99641.58;1692548;83;20965;-63
2022/05/20 12:35:14;;;;;;;28.32;4.78;;;;;;;20.65;61.38;99639.17;1695261;83;20945;-62
2022/05/20 12:37:46;;;;;;;5.97;2.72;;;;;;;21.06;61.47;99641.19;1688210;83;21045;-62
2022/05/20 12:40:33;;;;;;;10.80;3.08;;;;;;;21.39;60.51;99632.41;1706080;81;20936;-62
2022/05/20 12:43:08;;;;;;;18.57;5.03;;;;;;;20.92;59.69;99627.00;1742544;80;20968;-62
2022/05/20 12:45:51;;;;;;;6.83;3.57;;;;;;;20.56;60.06;99633.38;1738381;80;20928;-60
2022/05/20 12:48:27;;;;;;;5.10;3.72;;;;;;;20.25;59.74;99621.52;1849410;75;21396;-62
2022/05/20 12:51:05;;;;;;;5.53;3.10;;;;;;;20.18;59.51;99630.97;1842753;76;21250;-62